Time;durP1;ratioP1;P1;durP2;ratioP2;P2;SDS_P1;SDS_P2;PMS_P1;PMS_P2;Temp;Humidity;BMP_temperature;BMP_pressure;BME280_temperature;BME280_humidity;BME280_pressure;Samples;Min_cycle;Max_cycle;Signal;HPM_P1;HPM_P2
2021/03/31 00:00:22;;;;;;;26.40;16.55;;;;;;;21.90;18.60;95431.25;5075417;28;20048;-42
2021/03/31 00:02:51;;;;;;;25.90;17.38;;;;;;;20.14;20.50;95422.75;5075441;28;20051;-41
2021/03/31 00:05:18;;;;;;;24.92;16.55;;;;;;;19.34;21.28;95433.16;5094753;28;20035;-40
2021/03/31 00:07:46;;;;;;;22.67;16.75;;;;;;;18.72;21.97;95430.09;5095842;28;20044;-42
2021/03/31 00:10:20;;;;;;;22.45;16.05;;;;;;;20.05;21.01;95416.72;5077529;28;20040;-43
2021/03/31 00:12:48;;;;;;;23.67;15.95;;;;;;;18.97;21.91;95423.22;5094659;28;20082;-42
2021/03/31 00:15:16;;;;;;;20.60;15.50;;;;;;;18.84;22.22;95421.53;5089808;28;20063;-42
2021/03/31 00:17:43;;;;;;;21.83;15.80;;;;;;;19.20;21.43;95418.53;5075275;28;20051;-51
2021/03/31 00:20:13;;;;;;;20.90;15.18;;;;;;;20.18;20.80;95413.03;5075283;28;20041;-42
2021/03/31 00:22:40;;;;;;;20.83;15.00;;;;;;;18.58;22.61;95422.28;5075155;28;20048;-42
2021/03/31 00:25:08;;;;;;;21.85;15.60;;;;;;;19.10;22.22;95407.16;5074450;28;20063;-41
2021/03/31 00:27:35;;;;;;;22.10;14.55;;;;;;;20.39;20.73;95405.09;5073871;28;20126;-42
2021/03/31 00:30:08;;;;;;;21.67;15.13;;;;;;;18.99;22.02;95411.22;5074912;28;20053;-41
2021/03/31 00:32:35;;;;;;;23.77;14.77;;;;;;;19.65;21.49;95401.13;5075056;28;20055;-41
2021/03/31 00:35:03;;;;;;;20.17;14.75;;;;;;;18.40;22.89;95392.34;5093690;28;20044;-45
2021/03/31 00:37:30;;;;;;;25.13;15.10;;;;;;;18.95;22.16;95394.41;5094896;28;20051;-44
2021/03/31 00:39:57;;;;;;;25.58;15.60;;;;;;;19.58;21.21;95398.19;5077335;28;20051;-40
2021/03/31 00:42:25;;;;;;;23.63;15.88;;;;;;;19.86;20.75;95395.88;5095143;28;20059;-41
2021/03/31 00:44:52;;;;;;;24.13;16.45;;;;;;;18.10;23.22;95396.66;5094830;28;20051;-40
2021/03/31 00:47:19;;;;;;;27.25;16.83;;;;;;;19.48;21.38;95395.06;5090832;28;20475;-42
2021/03/31 00:49:47;;;;;;;24.40;16.67;;;;;;;19.70;20.93;95398.28;5074721;28;20048;-41
2021/03/31 00:52:14;;;;;;;24.77;18.05;;;;;;;19.00;22.16;95396.91;5074919;28;20059;-40
2021/03/31 00:54:42;;;;;;;20.83;15.65;;;;;;;19.04;22.14;95397.81;5057125;28;20049;-41
2021/03/31 00:57:09;;;;;;;25.73;17.73;;;;;;;18.07;23.16;95402.59;5074944;28;20048;-41
2021/03/31 00:59:36;;;;;;;25.95;17.35;;;;;;;18.42;22.75;95392.81;5074759;28;20051;-40
2021/03/31 01:02:04;;;;;;;26.60;16.55;;;;;;;18.44;23.33;95401.22;5074521;28;20250;-40
2021/03/31 01:04:31;;;;;;;27.33;17.45;;;;;;;18.29;23.07;95393.75;5077812;28;20447;-43
2021/03/31 01:06:58;;;;;;;25.00;15.95;;;;;;;17.70;23.90;95393.31;5078420;28;20051;-41
2021/03/31 01:09:27;;;;;;;26.35;16.35;;;;;;;19.05;22.42;95391.44;5078476;28;20052;-42
2021/03/31 01:12:25;;;;;;;23.98;17.75;;;;;;;18.94;22.04;95386.75;5088250;28;20370;-40
2021/03/31 01:15:07;;;;;;;27.27;17.13;;;;;;;18.30;23.14;95387.38;5098613;28;20048;-41
2021/03/31 01:18:15;;;;;;;23.88;15.90;;;;;;;19.28;21.97;95385.94;5080815;28;20048;-42
2021/03/31 01:21:11;;;;;;;24.23;16.45;;;;;;;18.83;22.27;95382.88;5098878;28;20048;-47
2021/03/31 01:23:47;;;;;;;26.27;16.27;;;;;;;17.67;23.78;95388.59;5081051;28;20044;-54
2021/03/31 01:26:14;;;;;;;26.70;16.50;;;;;;;18.51;22.79;95384.13;5098887;28;20047;-41
2021/03/31 01:29:03;;;;;;;27.45;17.63;;;;;;;18.68;22.71;95389.44;5098249;28;20056;-57
2021/03/31 01:32:01;;;;;;;25.02;16.48;;;;;;;17.56;23.95;95387.28;5097781;28;20047;-49
2021/03/31 01:34:42;;;;;;;24.35;16.50;;;;;;;17.34;24.35;95387.34;5098667;28;20048;-42
2021/03/31 01:37:39;;;;;;;31.27;16.52;;;;;;;18.79;22.69;95390.69;5080466;28;20048;-42
2021/03/31 01:40:08;;;;;;;23.92;16.30;;;;;;;18.56;22.67;95381.31;5097844;28;20052;-42
2021/03/31 01:42:38;;;;;;;25.83;16.27;;;;;;;17.80;23.70;95387.72;5080480;28;20060;-45
2021/03/31 01:45:07;;;;;;;25.02;16.75;;;;;;;17.91;23.60;95382.94;5061770;28;20052;-52
2021/03/31 01:47:38;;;;;;;28.17;16.25;;;;;;;18.81;22.23;95388.50;5060322;28;20482;-51
2021/03/31 01:50:07;;;;;;;29.88;17.45;;;;;;;17.57;23.90;95392.28;5060293;28;20047;-52
2021/03/31 01:52:35;;;;;;;23.85;17.42;;;;;;;17.54;23.99;95400.03;5077988;28;20440;-43
2021/03/31 01:55:07;;;;;;;28.15;17.00;;;;;;;17.83;23.46;95387.13;5060384;28;20455;-46
2021/03/31 01:57:35;;;;;;;29.10;17.92;;;;;;;16.75;25.02;95394.63;5059870;28;20059;-42
2021/03/31 02:00:05;;;;;;;24.00;17.38;;;;;;;18.07;23.17;95385.94;5060160;28;20055;-46
2021/03/31 02:02:52;;;;;;;25.45;17.05;;;;;;;17.60;24.20;95390.88;5077703;28;20083;-42
2021/03/31 02:05:23;;;;;;;32.22;17.05;;;;;;;16.75;24.76;95391.97;5078166;28;20059;-42
2021/03/31 02:07:51;;;;;;;26.13;17.50;;;;;;;18.03;23.20;95385.00;5059707;28;20490;-44
2021/03/31 02:10:22;;;;;;;24.58;17.10;;;;;;;17.78;23.42;95389.13;5060119;28;20467;-42
2021/03/31 02:12:49;;;;;;;25.15;17.70;;;;;;;18.44;22.79;95374.75;5077591;28;20052;-42
2021/03/31 02:15:22;;;;;;;24.65;17.20;;;;;;;18.69;22.51;95380.38;5078772;28;20048;-42
2021/03/31 02:17:50;;;;;;;28.42;17.40;;;;;;;16.75;24.81;95381.41;5079637;28;20044;-42
2021/03/31 02:20:19;;;;;;;27.48;16.90;;;;;;;16.89;24.72;95385.53;5074492;28;20067;-42
2021/03/31 02:22:47;;;;;;;26.10;17.15;;;;;;;17.32;24.22;95392.16;5043438;28;20059;-41
2021/03/31 02:25:14;;;;;;;27.23;17.35;;;;;;;18.97;22.44;95386.91;5077516;28;20056;-42
2021/03/31 02:27:42;;;;;;;25.77;16.42;;;;;;;17.26;24.11;95389.66;5059406;28;20049;-45
2021/03/31 02:30:12;;;;;;;26.58;16.40;;;;;;;17.00;24.45;95385.31;5059692;28;20057;-42
2021/03/31 02:32:41;;;;;;;25.45;16.15;;;;;;;17.36;24.02;95393.13;5059757;28;20324;-42
2021/03/31 02:35:09;;;;;;;23.30;15.88;;;;;;;17.07;24.22;95391.72;5059643;28;20049;-55
2021/03/31 02:37:38;;;;;;;24.30;14.63;;;;;;;18.26;22.69;95393.59;5076929;28;20067;-44
2021/03/31 02:40:08;;;;;;;22.08;15.45;;;;;;;17.81;23.58;95384.00;5059665;28;20151;-56
2021/03/31 02:42:35;;;;;;;28.63;15.65;;;;;;;17.16;24.11;95384.59;5075210;28;20052;-48
2021/03/31 02:45:03;;;;;;;28.17;16.17;;;;;;;17.72;23.29;95380.56;5079231;28;20044;-55
2021/03/31 02:47:34;;;;;;;23.00;16.40;;;;;;;17.42;23.74;95383.97;5079388;28;20044;-48
2021/03/31 02:50:04;;;;;;;24.10;15.93;;;;;;;17.54;23.63;95392.91;5079323;28;20052;-43
2021/03/31 02:52:32;;;;;;;25.00;16.33;;;;;;;16.50;24.76;95388.81;5097145;28;20044;-49
2021/03/31 02:55:01;;;;;;;22.63;16.42;;;;;;;16.68;24.71;95388.97;5079359;28;20066;-41
2021/03/31 02:57:29;;;;;;;29.27;17.77;;;;;;;17.21;24.31;95389.78;5062294;28;20044;-42
2021/03/31 02:59:56;;;;;;;25.77;15.93;;;;;;;16.74;24.43;95391.19;5096938;28;20077;-49
2021/03/31 03:02:24;;;;;;;24.52;16.45;;;;;;;17.54;23.64;95394.75;5079038;28;20051;-45
2021/03/31 03:04:52;;;;;;;28.25;16.88;;;;;;;17.00;24.24;95390.59;5079014;28;20048;-43
2021/03/31 03:07:21;;;;;;;29.02;17.10;;;;;;;16.40;25.11;95382.97;5082219;28;20055;-55
2021/03/31 03:09:48;;;;;;;28.80;17.60;;;;;;;16.20;25.52;95386.84;5078878;28;20044;-50
2021/03/31 03:12:16;;;;;;;23.90;17.00;;;;;;;17.10;24.31;95383.19;5096646;28;20047;-41
2021/03/31 03:14:47;;;;;;;28.35;16.55;;;;;;;17.12;24.19;95378.38;5063119;28;20056;-40
2021/03/31 03:17:17;;;;;;;28.25;17.02;;;;;;;16.43;25.31;95385.81;5076463;28;20060;-41
2021/03/31 03:19:44;;;;;;;28.00;17.10;;;;;;;16.07;25.50;95371.78;5058014;28;20055;-49
2021/03/31 03:22:13;;;;;;;25.27;16.23;;;;;;;16.57;24.91;95380.47;5076455;28;20050;-52
2021/03/31 03:24:44;;;;;;;24.80;16.30;;;;;;;15.98;25.83;95388.31;5076273;28;20048;-54
2021/03/31 03:27:13;;;;;;;28.40;17.45;;;;;;;16.42;25.28;95388.75;5058551;28;20051;-42
2021/03/31 03:29:44;;;;;;;23.67;16.02;;;;;;;17.22;24.00;95388.72;5058216;28;20049;-52
2021/03/31 03:32:11;;;;;;;28.45;15.50;;;;;;;15.99;25.61;95379.34;5057926;28;20040;-55
2021/03/31 03:34:39;;;;;;;28.45;17.25;;;;;;;15.83;25.83;95379.94;5058403;28;20056;-47
2021/03/31 03:37:06;;;;;;;27.40;16.58;;;;;;;17.10;24.68;95391.09;5076352;28;20438;-41
2021/03/31 03:39:33;;;;;;;25.08;16.48;;;;;;;16.12;25.25;95383.00;5058286;28;20036;-40
2021/03/31 03:42:01;;;;;;;26.95;17.38;;;;;;;15.59;26.27;95380.13;5086916;28;20051;-40
2021/03/31 03:44:28;;;;;;;34.42;17.88;;;;;;;16.13;25.56;95378.53;5095875;28;20047;-41
2021/03/31 03:46:55;;;;;;;35.05;17.10;;;;;;;15.55;26.35;95369.38;5095985;28;20074;-41
2021/03/31 03:49:23;;;;;;;26.27;17.42;;;;;;;16.45;25.43;95375.72;5077752;28;20052;-41
2021/03/31 03:51:50;;;;;;;25.02;17.60;;;;;;;15.52;26.29;95367.31;5078360;28;20055;-53
2021/03/31 03:54:17;;;;;;;36.63;20.70;;;;;;;15.41;26.71;95373.84;5078230;28;20049;-57
2021/03/31 03:56:49;;;;;;;33.17;19.70;;;;;;;16.71;25.01;95377.81;5095901;28;20402;-51
2021/03/31 03:59:24;;;;;;;30.42;19.75;;;;;;;16.13;25.42;95378.53;5095451;28;20390;-45
2021/03/31 04:01:52;;;;;;;33.00;18.70;;;;;;;14.79;27.61;95373.31;5095971;28;20055;-44
2021/03/31 04:04:20;;;;;;;26.42;18.83;;;;;;;16.52;25.09;95372.66;5095956;28;20060;-42
2021/03/31 04:06:47;;;;;;;17.98;13.75;;;;;;;21.82;22.79;95373.56;5086461;28;20059;-42
2021/03/31 04:09:15;;;;;;;17.50;13.27;;;;;;;24.90;18.97;95376.50;5074327;28;20052;-43
2021/03/31 04:11:44;;;;;;;17.65;12.70;;;;;;;25.42;18.01;95367.16;5075622;28;20052;-41
2021/03/31 04:14:12;;;;;;;19.33;14.25;;;;;;;26.89;16.57;95374.31;5075285;28;20040;-42
2021/03/31 04:16:41;;;;;;;20.65;14.77;;;;;;;27.34;16.01;95375.22;5057693;28;20044;-40
2021/03/31 04:19:12;;;;;;;24.00;15.98;;;;;;;25.86;16.28;95388.19;5054348;28;20047;-40
2021/03/31 04:21:43;;;;;;;20.67;15.43;;;;;;;26.94;15.33;95392.00;5074601;28;20048;-52
2021/03/31 04:24:13;;;;;;;21.45;14.40;;;;;;;27.98;14.33;95393.81;5057503;28;20044;-42
2021/03/31 04:26:41;;;;;;;19.30;13.90;;;;;;;28.68;13.66;95392.72;5061402;28;20071;-43
2021/03/31 04:29:09;;;;;;;20.30;14.20;;;;;;;28.88;13.46;95387.81;5087117;28;20052;-46
2021/03/31 04:31:37;;;;;;;17.27;13.88;;;;;;;29.28;13.10;95387.56;5058631;28;20056;-45
2021/03/31 04:34:07;;;;;;;16.90;13.10;;;;;;;29.84;12.70;95391.50;5074267;28;20044;-44
2021/03/31 04:36:35;;;;;;;17.65;13.23;;;;;;;30.06;12.61;95397.69;5057594;28;20051;-46
2021/03/31 04:39:04;;;;;;;18.83;13.25;;;;;;;31.11;12.56;95388.94;5056338;28;20044;-50
2021/03/31 04:41:32;;;;;;;17.20;12.30;;;;;;;31.22;12.22;95395.84;5075088;28;20040;-48
2021/03/31 04:43:59;;;;;;;16.75;12.05;;;;;;;31.05;12.35;95402.09;5074545;28;20048;-58
2021/03/31 04:46:26;;;;;;;17.45;12.82;;;;;;;29.78;13.13;95398.44;5073892;28;20044;-45
2021/03/31 04:48:53;;;;;;;16.52;13.10;;;;;;;30.47;12.48;95398.03;5074548;28;20041;-47
2021/03/31 04:51:20;;;;;;;17.35;13.07;;;;;;;31.04;11.95;95397.09;5074877;28;20455;-49
2021/03/31 04:53:48;;;;;;;20.65;13.80;;;;;;;31.02;12.69;95397.50;5074863;28;20049;-48
2021/03/31 04:56:15;;;;;;;21.30;14.23;;;;;;;30.89;13.09;95399.06;5074795;28;20052;-52
2021/03/31 04:58:43;;;;;;;20.25;14.30;;;;;;;30.69;13.03;95410.31;5074500;28;20362;-48
2021/03/31 05:01:10;;;;;;;24.80;16.80;;;;;;;27.99;14.50;95412.22;5074937;28;20040;-50
2021/03/31 05:03:37;;;;;;;23.00;18.38;;;;;;;30.08;12.75;95396.16;5074778;28;20051;-49
2021/03/31 05:06:05;;;;;;;26.98;18.63;;;;;;;27.12;14.85;95397.59;5080381;28;20044;-51
2021/03/31 05:08:32;;;;;;;26.52;18.23;;;;;;;24.52;16.92;95394.09;5073559;28;20052;-48
2021/03/31 05:10:59;;;;;;;31.00;20.38;;;;;;;22.04;18.78;95401.66;5074764;28;20059;-50
2021/03/31 05:13:26;;;;;;;26.60;20.80;;;;;;;20.18;20.56;95402.41;5086684;28;20481;-52
2021/03/31 05:15:53;;;;;;;32.80;21.85;;;;;;;20.08;20.47;95408.09;5094927;28;20050;-47
2021/03/31 05:18:20;;;;;;;32.63;21.30;;;;;;;18.68;22.42;95415.91;5090637;28;20052;-52
2021/03/31 05:20:47;;;;;;;35.25;22.52;;;;;;;18.98;21.80;95407.00;5074925;28;20049;-50
2021/03/31 05:23:14;;;;;;;30.10;20.85;;;;;;;20.48;19.71;95402.41;5082733;28;20052;-61
2021/03/31 05:25:41;;;;;;;33.17;21.88;;;;;;;17.78;23.35;95411.06;5081000;28;20051;-47
2021/03/31 05:28:08;;;;;;;32.22;20.33;;;;;;;18.06;23.11;95410.84;5074364;28;20048;-49
2021/03/31 05:30:38;;;;;;;27.05;19.58;;;;;;;17.54;23.77;95410.63;5074727;28;20044;-53
2021/03/31 05:33:06;;;;;;;34.97;20.27;;;;;;;17.90;23.40;95405.19;5074627;28;20056;-48
2021/03/31 05:35:33;;;;;;;38.47;22.08;;;;;;;17.79;24.11;95412.63;5074770;28;20043;-52
2021/03/31 05:38:00;;;;;;;32.42;19.90;;;;;;;17.91;23.54;95405.94;5056540;28;20040;-50
2021/03/31 05:40:31;;;;;;;29.65;19.48;;;;;;;17.40;24.51;95410.69;5074626;28;20041;-48
2021/03/31 05:43:01;;;;;;;29.30;19.17;;;;;;;18.95;22.31;95415.59;5074407;28;20056;-48
2021/03/31 05:45:29;;;;;;;24.90;18.00;;;;;;;18.24;23.27;95411.66;5074508;28;20051;-49
2021/03/31 05:47:58;;;;;;;23.17;16.80;;;;;;;19.04;21.98;95411.06;5067852;28;20358;-50
2021/03/31 05:50:26;;;;;;;22.00;14.85;;;;;;;21.51;20.40;95411.34;5083673;28;20060;-50
2021/03/31 05:52:53;;;;;;;23.52;15.82;;;;;;;;;;5078063;28;20359;-52
2021/03/31 05:55:20;;;;;;;23.02;16.15;;;;;;;21.82;20.10;95405.50;5081446;28;20066;-50
2021/03/31 05:57:48;;;;;;;24.83;16.02;;;;;;;22.35;17.98;95409.06;5098074;28;20047;-50
2021/03/31 06:00:22;;;;;;;21.30;15.85;;;;;;;20.89;20.51;95410.38;5060989;28;20049;-50
2021/03/31 06:02:50;;;;;;;23.38;17.13;;;;;;;20.81;20.23;95402.44;5076227;28;20056;-49
2021/03/31 06:05:19;;;;;;;29.33;18.70;;;;;;;20.80;19.98;95401.69;5076895;28;20045;-47
2021/03/31 06:07:49;;;;;;;25.60;18.85;;;;;;;19.93;20.87;95405.97;5077776;28;20055;-47
2021/03/31 06:10:43;;;;;;;37.00;21.40;;;;;;;19.97;20.92;95406.91;5086506;28;20044;-48
2021/03/31 06:13:12;;;;;;;;;;;;;;;20.54;20.51;95409.06;5091681;28;20055;-50
2021/03/31 06:15:45;;;;;;;28.52;20.58;;;;;;;20.65;20.56;95402.28;5097834;28;19912;-50
2021/03/31 06:18:14;;;;;;;31.92;20.13;;;;;;;20.13;21.61;95399.94;5095290;28;20044;-48
2021/03/31 06:20:53;;;;;;;26.85;17.70;;;;;;;19.61;23.44;95408.16;5079211;28;20394;-49
2021/03/31 06:26:26;;;;;;;29.63;19.67;;;;;;;19.72;22.13;95405.91;5077360;28;20520;-50
2021/03/31 06:28:56;;;;;;;29.60;18.13;;;;;;;19.86;21.94;95401.19;5059439;28;20049;-51
2021/03/31 06:31:28;;;;;;;29.80;19.17;;;;;;;20.43;21.06;95403.38;5076221;28;20044;-51
2021/03/31 06:34:00;;;;;;;29.95;20.73;;;;;;;19.98;21.77;95403.16;5077314;28;20057;-48
2021/03/31 06:36:40;;;;;;;37.80;22.52;;;;;;;20.89;20.87;95399.75;5077193;28;20063;-48
2021/03/31 06:39:17;;;;;;;34.70;22.05;;;;;;;20.62;21.23;95405.59;5077062;28;20386;-51
2021/03/31 06:42:07;;;;;;;40.53;23.15;;;;;;;21.39;20.19;95406.03;5080017;28;20048;-50
2021/03/31 06:47:38;;;;;;;36.40;22.35;;;;;;;20.51;20.98;95405.19;5064384;28;20048;-49
2021/03/31 06:50:09;;;;;;;32.72;22.55;;;;;;;21.38;20.35;95402.59;5062719;28;20068;-49
2021/03/31 06:52:59;;;;;;;26.23;20.00;;;;;;;21.01;20.41;95399.00;5095707;28;20357;-50
2021/03/31 06:55:29;;;;;;;30.88;20.45;;;;;;;21.74;19.77;95401.06;5095357;28;20048;-51
2021/03/31 06:57:58;;;;;;;30.67;19.48;;;;;;;20.52;20.82;95395.34;5096486;28;20054;-68
2021/03/31 07:00:27;;;;;;;29.05;19.75;;;;;;;20.68;20.91;95404.28;5095215;28;20044;-50
2021/03/31 07:02:57;;;;;;;24.45;16.60;;;;;;;21.43;19.92;95397.03;5075614;28;20052;-52
2021/03/31 07:05:24;;;;;;;24.58;15.68;;;;;;;21.60;19.36;95405.91;5076688;28;20044;-50
2021/03/31 07:08:03;;;;;;;21.23;14.68;;;;;;;20.53;20.19;95396.88;5059445;28;20044;-48
2021/03/31 07:10:39;;;;;;;21.30;13.73;;;;;;;20.48;21.08;95400.53;5092822;28;20346;-50
2021/03/31 07:13:06;;;;;;;23.58;14.82;;;;;;;21.46;20.27;95401.69;5096157;28;20476;-47
2021/03/31 07:15:34;;;;;;;19.10;15.43;;;;;;;21.46;19.76;95401.69;5096705;28;20055;-50
2021/03/31 07:18:01;;;;;;;23.55;15.80;;;;;;;21.34;20.00;95393.72;5077845;28;20052;-48
2021/03/31 07:20:30;;;;;;;18.40;13.25;;;;;;;20.96;20.20;95398.44;5073452;28;20048;-50
2021/03/31 07:23:01;;;;;;;20.33;14.13;;;;;;;20.87;19.79;95401.94;5096085;28;20048;-50
2021/03/31 07:25:28;;;;;;;21.58;14.15;;;;;;;21.02;20.19;95395.22;5096573;28;20048;-49
2021/03/31 07:27:57;;;;;;;21.77;14.38;;;;;;;21.30;20.03;95402.66;5085654;28;20040;-50
2021/03/31 07:30:27;;;;;;;20.85;15.57;;;;;;;20.28;21.21;95396.72;5079027;28;20357;-50
2021/03/31 07:33:15;;;;;;;26.33;14.88;;;;;;;20.99;21.28;95400.44;5096072;28;20055;-49
2021/03/31 07:35:43;;;;;;;23.77;16.25;;;;;;;21.73;18.95;95388.88;5075271;28;20052;-49
2021/03/31 07:38:13;;;;;;;19.25;14.98;;;;;;;21.02;19.94;95402.44;5074413;28;21594;-51
2021/03/31 07:40:41;;;;;;;25.40;14.82;;;;;;;22.60;18.52;95402.56;5073158;28;20040;-50
2021/03/31 07:43:10;;;;;;;21.65;15.43;;;;;;;23.23;17.78;95388.72;5077798;28;20048;-51
2021/03/31 07:45:41;;;;;;;20.67;15.48;;;;;;;22.48;18.88;95397.28;5093912;28;20365;-48
2021/03/31 07:48:09;;;;;;;19.50;15.18;;;;;;;22.58;18.55;95394.13;5074325;28;20048;-49
2021/03/31 07:50:37;;;;;;;22.10;15.95;;;;;;;21.98;19.24;95390.44;5058219;28;20060;-51
2021/03/31 07:53:06;;;;;;;21.20;15.77;;;;;;;22.83;18.71;95392.19;5075523;28;20044;-50
2021/03/31 07:55:41;;;;;;;23.65;16.83;;;;;;;22.62;18.83;95392.34;5075789;28;20048;-49
2021/03/31 07:58:16;;;;;;;25.77;17.30;;;;;;;23.35;17.47;95385.97;5075604;28;20055;-52
2021/03/31 08:03:16;;;;;;;25.42;16.02;;;;;;;22.61;18.47;95388.13;5075287;28;20056;-49
2021/03/31 08:06:09;;;;;;;24.13;15.95;;;;;;;23.27;17.55;95384.22;5075707;28;20056;-48
2021/03/31 08:08:38;;;;;;;22.60;16.88;;;;;;;22.15;19.24;95390.25;5075511;28;20048;-53
2021/03/31 08:11:05;;;;;;;24.42;17.45;;;;;;;22.25;18.65;95388.22;5075572;28;20049;-52
2021/03/31 08:13:41;;;;;;;25.00;17.55;;;;;;;22.82;18.36;95387.22;5074419;28;20463;-53
2021/03/31 08:16:36;;;;;;;22.77;15.48;;;;;;;21.99;18.82;95394.66;5075574;28;20051;-47
2021/03/31 08:19:13;;;;;;;20.73;15.20;;;;;;;22.49;18.55;95388.19;5075674;28;20379;-50
2021/03/31 08:21:46;;;;;;;20.75;15.73;;;;;;;21.13;19.91;95390.31;5078517;28;20044;-49
2021/03/31 08:24:16;;;;;;;17.95;14.35;;;;;;;23.92;16.53;95372.13;5095921;28;20044;-51
2021/03/31 08:26:54;;;;;;;19.13;13.45;;;;;;;22.71;18.03;95379.69;5095717;28;20442;-47
2021/03/31 08:29:21;;;;;;;18.58;13.20;;;;;;;22.62;17.27;95379.03;5077953;28;20353;-50
2021/03/31 08:31:57;;;;;;;16.80;12.30;;;;;;;23.35;17.24;95381.41;5095576;28;20054;-51
2021/03/31 08:34:24;;;;;;;18.15;12.25;;;;;;;22.93;18.48;95375.75;5095676;28;20044;-52
2021/03/31 08:36:52;;;;;;;17.92;13.48;;;;;;;24.30;15.67;95384.06;5095652;28;20059;-50
2021/03/31 08:39:19;;;;;;;17.40;13.52;;;;;;;23.60;16.17;95382.03;5087331;28;20044;-53
2021/03/31 08:41:51;;;;;;;17.45;12.25;;;;;;;22.11;18.03;95378.69;5075297;28;20048;-49
2021/03/31 08:44:40;;;;;;;20.45;13.35;;;;;;;22.02;18.14;95374.56;5087081;28;20047;-51
2021/03/31 08:47:24;;;;;;;18.50;12.55;;;;;;;21.89;18.20;95381.78;5095036;28;20048;-50
2021/03/31 08:50:06;;;;;;;17.13;12.55;;;;;;;22.99;17.11;95371.72;5095312;28;20052;-49
2021/03/31 08:52:36;;;;;;;17.23;12.38;;;;;;;20.75;20.09;95377.19;5095138;28;20052;-53
2021/03/31 08:55:09;;;;;;;17.73;12.38;;;;;;;22.95;17.21;95367.41;5074280;28;20053;-50
2021/03/31 08:57:37;;;;;;;16.38;11.98;;;;;;;22.70;17.49;95372.78;5057245;28;20057;-50
2021/03/31 09:00:07;;;;;;;17.10;12.40;;;;;;;20.90;19.60;95365.97;5074902;28;20051;-48
2021/03/31 09:02:38;;;;;;;13.27;11.38;;;;;;;20.96;20.76;95361.22;5074642;28;20052;-47
2021/03/31 09:05:06;;;;;;;18.40;13.68;;;;;;;23.23;18.57;95368.13;5075307;28;20048;-49
2021/03/31 09:07:33;;;;;;;14.80;11.45;;;;;;;22.08;18.35;95363.38;5073499;28;20056;-51
2021/03/31 09:10:01;;;;;;;14.93;11.18;;;;;;;23.68;15.96;95358.97;5055621;28;20044;-52
2021/03/31 09:12:29;;;;;;;14.88;11.52;;;;;;;22.77;17.46;95362.31;5074613;28;20050;-52
2021/03/31 09:14:59;;;;;;;14.70;12.18;;;;;;;22.20;18.07;95353.84;5091218;28;20056;-50
2021/03/31 09:17:29;;;;;;;13.93;11.75;;;;;;;21.73;18.65;95356.94;5094721;28;20390;-48
2021/03/31 09:19:59;;;;;;;15.95;11.48;;;;;;;21.41;19.81;95356.72;5094693;28;20458;-52
2021/03/31 09:22:30;;;;;;;14.85;11.13;;;;;;;22.56;19.67;95356.41;5085363;28;20047;-49
2021/03/31 09:25:08;;;;;;;13.57;11.30;;;;;;;23.96;17.96;95350.88;5080483;28;20063;-51
2021/03/31 09:27:36;;;;;;;15.93;11.02;;;;;;;25.49;16.27;95341.28;5058861;28;20052;-53
2021/03/31 09:30:13;;;;;;;15.73;11.13;;;;;;;26.35;14.54;95354.13;5077977;28;20044;-52
2021/03/31 09:33:02;;;;;;;14.20;11.27;;;;;;;25.34;16.01;95341.41;5077967;28;20044;-52
2021/03/31 09:35:29;;;;;;;12.60;11.23;;;;;;;23.90;17.46;95336.97;5072727;28;20359;-52
2021/03/31 09:38:04;;;;;;;11.75;10.50;;;;;;;25.31;16.74;95342.13;5078148;28;20059;-51
2021/03/31 09:40:32;;;;;;;13.48;11.10;;;;;;;26.37;14.80;95338.44;5078300;28;20075;-53
2021/03/31 09:43:01;;;;;;;14.95;11.77;;;;;;;25.83;15.78;95340.69;5079039;28;20052;-50
2021/03/31 09:45:30;;;;;;;13.20;11.50;;;;;;;26.08;14.80;95339.16;5098582;28;20046;-52
2021/03/31 09:47:58;;;;;;;19.70;15.13;;;;;;;26.11;14.89;95338.44;5090374;28;20062;-50
2021/03/31 09:50:27;;;;;;;16.63;13.35;;;;;;;25.89;14.54;95336.56;5080426;28;20051;-50
2021/03/31 09:53:01;;;;;;;17.63;13.23;;;;;;;25.08;15.41;95324.16;5095916;28;20039;-50
2021/03/31 09:55:29;;;;;;;14.80;11.38;;;;;;;24.97;15.06;95328.50;5080798;28;20048;-54
2021/03/31 09:57:57;;;;;;;14.30;11.02;;;;;;;25.10;15.15;95324.56;5079123;28;20048;-50
2021/03/31 10:00:26;;;;;;;14.52;11.75;;;;;;;24.68;15.84;95321.06;5076333;28;20357;-50
2021/03/31 10:03:05;;;;;;;14.40;11.50;;;;;;;23.98;17.92;95304.00;5081169;28;20052;-54
2021/03/31 10:05:33;;;;;;;14.35;10.82;;;;;;;26.29;14.14;95315.34;5061079;28;20052;-50
2021/03/31 10:08:06;;;;;;;15.43;10.82;;;;;;;26.23;14.28;95305.28;5077804;28;20053;-51
2021/03/31 10:10:39;;;;;;;14.35;10.65;;;;;;;25.23;15.31;95308.34;5078140;28;20083;-49
2021/03/31 10:13:07;;;;;;;13.25;10.23;;;;;;;25.25;15.26;95300.75;5076873;28;20048;-50
2021/03/31 10:15:34;;;;;;;12.63;10.77;;;;;;;26.35;14.50;95308.53;5080306;28;20078;-54
2021/03/31 10:18:02;;;;;;;12.38;10.57;;;;;;;25.62;14.91;95299.03;5097879;28;20043;-50
2021/03/31 10:20:42;;;;;;;14.60;11.13;;;;;;;25.74;14.57;95298.09;5080370;28;20054;-51
2021/03/31 10:23:35;;;;;;;13.38;11.27;;;;;;;24.48;16.01;95291.69;5097827;28;20044;-50
2021/03/31 10:26:25;;;;;;;14.10;10.57;;;;;;;24.78;17.20;95291.09;5097962;28;20048;-49
2021/03/31 10:28:59;;;;;;;13.93;11.05;;;;;;;24.32;17.52;95285.63;5097261;28;20051;-52
2021/03/31 10:31:44;;;;;;;15.80;10.23;;;;;;;24.79;16.92;95279.28;5079496;28;20052;-50
2021/03/31 10:34:15;;;;;;;14.15;10.50;;;;;;;24.37;17.34;95274.66;5077409;28;20053;-51
2021/03/31 10:53:57;;;;;;;11.40;9.65;;;;;;;27.11;13.75;95245.78;5080266;28;20513;-51
2021/03/31 10:56:24;;;;;;;13.68;10.05;;;;;;;26.88;13.00;95251.28;5077013;28;20044;-50
2021/03/31 10:58:52;;;;;;;13.07;9.25;;;;;;;26.57;13.60;95239.09;5076506;28;20048;-50
2021/03/31 11:01:19;;;;;;;12.85;9.77;;;;;;;23.88;17.49;95237.75;5076816;28;20047;-50
2021/03/31 11:03:46;;;;;;;13.40;9.40;;;;;;;24.56;16.83;95231.91;5076571;28;20040;-52
2021/03/31 11:06:13;;;;;;;15.15;10.40;;;;;;;26.09;15.07;95236.22;5076605;28;20045;-49
2021/03/31 11:08:40;;;;;;;12.60;9.73;;;;;;;27.34;13.35;95228.34;5076646;28;20040;-51
2021/03/31 11:11:10;;;;;;;10.40;9.30;;;;;;;27.60;12.82;95221.22;5076872;28;20081;-48
2021/03/31 11:13:38;;;;;;;12.63;9.70;;;;;;;23.79;16.98;95221.19;5082824;28;20054;-52
2021/03/31 11:16:10;;;;;;;13.35;9.60;;;;;;;25.89;15.37;95224.09;5086618;28;20045;-49
2021/03/31 11:26:45;;;;;;;16.45;11.85;;;;;;;26.95;13.92;95211.09;5076214;28;20447;-49
2021/03/31 11:29:12;;;;;;;12.82;9.82;;;;;;;24.89;16.10;95203.81;5076223;28;20059;-49
2021/03/31 11:31:40;;;;;;;11.95;9.00;;;;;;;25.30;14.87;95199.53;5076227;28;20052;-51
2021/03/31 11:34:07;;;;;;;10.73;8.38;;;;;;;26.04;14.65;95185.66;5093590;28;20044;-49
2021/03/31 11:36:34;;;;;;;45.83;27.90;;;;;;;26.14;14.95;95190.34;5096538;28;20047;-50
2021/03/31 11:39:03;;;;;;;55.17;42.03;;;;;;;24.94;16.51;95192.03;5096089;28;20063;-49
2021/03/31 11:41:30;;;;;;;23.30;17.15;;;;;;;26.69;14.95;95183.28;5078692;28;20462;-49
2021/03/31 11:43:57;;;;;;;11.55;9.10;;;;;;;27.86;12.78;95177.25;5089123;28;20051;-56
2021/03/31 11:46:24;;;;;;;12.40;9.13;;;;;;;27.03;13.84;95177.84;5085322;28;20059;-55
2021/03/31 11:48:51;;;;;;;13.13;9.35;;;;;;;27.33;13.14;95172.34;5076238;28;20044;-52
2021/03/31 11:51:18;;;;;;;14.10;11.43;;;;;;;24.34;16.52;95165.81;5076241;28;20048;-50
2021/03/31 11:53:45;;;;;;;11.90;8.57;;;;;;;27.24;13.32;95169.19;5089854;28;20052;-50
2021/03/31 11:56:12;;;;;;;9.95;8.50;;;;;;;26.77;13.58;95157.28;5094487;28;20048;-49
2021/03/31 11:58:40;;;;;;;10.10;8.35;;;;;;;26.17;13.57;95157.47;5075606;28;20044;-49
2021/03/31 12:01:08;;;;;;;10.68;8.63;;;;;;;25.40;14.07;95155.31;5075866;28;20052;-51
2021/03/31 12:03:35;;;;;;;9.93;7.45;;;;;;;24.45;14.76;95152.63;5075329;28;20052;-48
2021/03/31 12:06:02;;;;;;;8.63;7.70;;;;;;;24.11;16.14;95155.06;5075544;28;20051;-47
2021/03/31 12:08:29;;;;;;;12.80;7.65;;;;;;;27.64;12.37;95158.34;5088492;28;20050;-49